sensor_id;sensor_type;location;lat;lon;timestamp;P1;durP1;ratioP1;P2;durP2;ratioP2
40707;SDS011;26392;42.696;23.350;2022-12-18T00:02:10;13.48;;;6.88;;
40707;SDS011;26392;42.696;23.350;2022-12-18T00:04:35;14.27;;;7.78;;
40707;SDS011;26392;42.696;23.350;2022-12-18T00:07:00;12.45;;;6.85;;
40707;SDS011;26392;42.696;23.350;2022-12-18T00:09:26;14.15;;;7.28;;
40707;SDS011;26392;42.696;23.350;2022-12-18T00:11:51;14.25;;;7.30;;
40707;SDS011;26392;42.696;23.350;2022-12-18T00:14:17;12.80;;;7.13;;
40707;SDS011;26392;42.696;23.350;2022-12-18T00:16:45;12.88;;;7.47;;
40707;SDS011;26392;42.696;23.350;2022-12-18T00:19:11;13.98;;;7.22;;
40707;SDS011;26392;42.696;23.350;2022-12-18T00:21:37;14.30;;;7.20;;
40707;SDS011;26392;42.696;23.350;2022-12-18T00:24:06;13.75;;;7.70;;
40707;SDS011;26392;42.696;23.350;2022-12-18T00:26:32;15.43;;;8.02;;
40707;SDS011;26392;42.696;23.350;2022-12-18T00:29:00;14.00;;;7.10;;
40707;SDS011;26392;42.696;23.350;2022-12-18T00:31:27;15.60;;;7.82;;
40707;SDS011;26392;42.696;23.350;2022-12-18T00:33:53;14.95;;;8.23;;
40707;SDS011;26392;42.696;23.350;2022-12-18T00:36:20;18.70;;;8.30;;
40707;SDS011;26392;42.696;23.350;2022-12-18T00:38:48;17.50;;;8.05;;
40707;SDS011;26392;42.696;23.350;2022-12-18T00:41:14;15.18;;;8.15;;
40707;SDS011;26392;42.696;23.350;2022-12-18T00:44:04;15.57;;;8.25;;
40707;SDS011;26392;42.696;23.350;2022-12-18T00:46:31;14.30;;;7.03;;
40707;SDS011;26392;42.696;23.350;2022-12-18T00:48:57;14.55;;;7.25;;
40707;SDS011;26392;42.696;23.350;2022-12-18T00:51:23;15.15;;;7.75;;
40707;SDS011;26392;42.696;23.350;2022-12-18T00:53:49;14.27;;;7.53;;
40707;SDS011;26392;42.696;23.350;2022-12-18T00:56:14;12.60;;;7.20;;
40707;SDS011;26392;42.696;23.350;2022-12-18T00:58:39;14.85;;;7.47;;
40707;SDS011;26392;42.696;23.350;2022-12-18T01:01:05;14.20;;;7.32;;
40707;SDS011;26392;42.696;23.350;2022-12-18T01:03:30;14.73;;;8.13;;
40707;SDS011;26392;42.696;23.350;2022-12-18T01:05:56;14.38;;;7.80;;
40707;SDS011;26392;42.696;23.350;2022-12-18T01:08:21;12.98;;;7.15;;
40707;SDS011;26392;42.696;23.350;2022-12-18T01:10:46;15.68;;;8.13;;
40707;SDS011;26392;42.696;23.350;2022-12-18T01:13:12;12.93;;;7.47;;
40707;SDS011;26392;42.696;23.350;2022-12-18T01:15:37;14.00;;;7.80;;
40707;SDS011;26392;42.696;23.350;2022-12-18T01:18:03;15.13;;;7.53;;
40707;SDS011;26392;42.696;23.350;2022-12-18T01:20:31;14.90;;;8.55;;
40707;SDS011;26392;42.696;23.350;2022-12-18T01:22:57;12.48;;;7.47;;
40707;SDS011;26392;42.696;23.350;2022-12-18T01:25:22;16.83;;;8.10;;
40707;SDS011;26392;42.696;23.350;2022-12-18T01:27:48;14.80;;;8.77;;
40707;SDS011;26392;42.696;23.350;2022-12-18T01:30:13;16.63;;;8.45;;
40707;SDS011;26392;42.696;23.350;2022-12-18T01:32:39;16.73;;;8.68;;
40707;SDS011;26392;42.696;23.350;2022-12-18T01:35:04;16.80;;;8.80;;
40707;SDS011;26392;42.696;23.350;2022-12-18T01:37:30;16.70;;;8.82;;
40707;SDS011;26392;42.696;23.350;2022-12-18T01:39:56;17.33;;;8.77;;
40707;SDS011;26392;42.696;23.350;2022-12-18T01:42:21;16.98;;;8.52;;
40707;SDS011;26392;42.696;23.350;2022-12-18T01:49:55;20.27;;;9.13;;
40707;SDS011;26392;42.696;23.350;2022-12-18T01:52:23;18.20;;;9.23;;
40707;SDS011;26392;42.696;23.350;2022-12-18T01:54:53;17.15;;;8.75;;
40707;SDS011;26392;42.696;23.350;2022-12-18T01:57:19;18.73;;;8.25;;
40707;SDS011;26392;42.696;23.350;2022-12-18T01:59:47;17.77;;;8.98;;
40707;SDS011;26392;42.696;23.350;2022-12-18T02:02:15;17.05;;;8.93;;
40707;SDS011;26392;42.696;23.350;2022-12-18T02:04:42;18.15;;;8.75;;
40707;SDS011;26392;42.696;23.350;2022-12-18T02:10:35;16.50;;;8.80;;
40707;SDS011;26392;42.696;23.350;2022-12-18T02:12:56;14.68;;;7.93;;
40707;SDS011;26392;42.696;23.350;2022-12-18T02:15:36;16.15;;;7.63;;
40707;SDS011;26392;42.696;23.350;2022-12-18T02:18:07;13.52;;;7.88;;
40707;SDS011;26392;42.696;23.350;2022-12-18T02:20:38;18.00;;;8.05;;
40707;SDS011;26392;42.696;23.350;2022-12-18T02:28:47;16.55;;;7.93;;
40707;SDS011;26392;42.696;23.350;2022-12-18T02:31:19;16.02;;;7.68;;
40707;SDS011;26392;42.696;23.350;2022-12-18T02:33:49;12.73;;;6.63;;
40707;SDS011;26392;42.696;23.350;2022-12-18T02:36:17;15.95;;;8.38;;
40707;SDS011;26392;42.696;23.350;2022-12-18T02:38:44;13.80;;;7.55;;
40707;SDS011;26392;42.696;23.350;2022-12-18T02:41:11;16.80;;;7.88;;
40707;SDS011;26392;42.696;23.350;2022-12-18T02:43:39;16.33;;;8.07;;
40707;SDS011;26392;42.696;23.350;2022-12-18T02:46:24;15.77;;;7.85;;
40707;SDS011;26392;42.696;23.350;2022-12-18T02:48:53;13.32;;;7.45;;
40707;SDS011;26392;42.696;23.350;2022-12-18T02:51:31;15.13;;;7.77;;
40707;SDS011;26392;42.696;23.350;2022-12-18T02:54:13;15.27;;;6.95;;
40707;SDS011;26392;42.696;23.350;2022-12-18T02:56:51;12.33;;;6.77;;
40707;SDS011;26392;42.696;23.350;2022-12-18T02:59:32;16.05;;;7.82;;
40707;SDS011;26392;42.696;23.350;2022-12-18T03:05:01;15.40;;;7.65;;
40707;SDS011;26392;42.696;23.350;2022-12-18T03:07:57;13.43;;;7.70;;
40707;SDS011;26392;42.696;23.350;2022-12-18T03:10:29;20.45;;;8.95;;
40707;SDS011;26392;42.696;23.350;2022-12-18T03:13:02;17.42;;;8.60;;
40707;SDS011;26392;42.696;23.350;2022-12-18T03:15:35;15.27;;;7.70;;
40707;SDS011;26392;42.696;23.350;2022-12-18T03:18:06;14.65;;;7.60;;
40707;SDS011;26392;42.696;23.350;2022-12-18T03:20:35;13.57;;;7.60;;
40707;SDS011;26392;42.696;23.350;2022-12-18T03:23:07;18.17;;;8.25;;
40707;SDS011;26392;42.696;23.350;2022-12-18T03:25:40;15.93;;;8.18;;
40707;SDS011;26392;42.696;23.350;2022-12-18T03:28:08;19.90;;;8.48;;
40707;SDS011;26392;42.696;23.350;2022-12-18T03:30:38;18.00;;;8.95;;
40707;SDS011;26392;42.696;23.350;2022-12-18T03:33:10;16.60;;;7.50;;
40707;SDS011;26392;42.696;23.350;2022-12-18T03:35:42;16.63;;;8.10;;
40707;SDS011;26392;42.696;23.350;2022-12-18T03:38:09;15.10;;;7.90;;
40707;SDS011;26392;42.696;23.350;2022-12-18T03:40:46;11.88;;;6.45;;
40707;SDS011;26392;42.696;23.350;2022-12-18T03:45:54;22.75;;;7.22;;
40707;SDS011;26392;42.696;23.350;2022-12-18T03:48:31;16.48;;;7.72;;
40707;SDS011;26392;42.696;23.350;2022-12-18T03:51:10;13.27;;;6.97;;
40707;SDS011;26392;42.696;23.350;2022-12-18T03:54:05;16.02;;;7.97;;
40707;SDS011;26392;42.696;23.350;2022-12-18T03:56:37;15.85;;;7.82;;
40707;SDS011;26392;42.696;23.350;2022-12-18T03:59:08;23.70;;;10.15;;
40707;SDS011;26392;42.696;23.350;2022-12-18T04:01:40;16.88;;;7.70;;
40707;SDS011;26392;42.696;23.350;2022-12-18T04:04:10;18.03;;;7.77;;
40707;SDS011;26392;42.696;23.350;2022-12-18T04:06:37;18.70;;;8.80;;
40707;SDS011;26392;42.696;23.350;2022-12-18T04:09:05;17.25;;;8.07;;
40707;SDS011;26392;42.696;23.350;2022-12-18T04:11:31;16.48;;;7.65;;
40707;SDS011;26392;42.696;23.350;2022-12-18T04:13:57;16.55;;;7.82;;
40707;SDS011;26392;42.696;23.350;2022-12-18T04:16:23;18.38;;;8.35;;
40707;SDS011;26392;42.696;23.350;2022-12-18T04:18:49;16.55;;;8.35;;
40707;SDS011;26392;42.696;23.350;2022-12-18T04:21:15;18.85;;;8.80;;
40707;SDS011;26392;42.696;23.350;2022-12-18T04:23:40;17.30;;;8.45;;
40707;SDS011;26392;42.696;23.350;2022-12-18T04:26:06;14.25;;;7.93;;
40707;SDS011;26392;42.696;23.350;2022-12-18T04:28:31;18.25;;;9.07;;
40707;SDS011;26392;42.696;23.350;2022-12-18T04:30:57;18.95;;;8.77;;
40707;SDS011;26392;42.696;23.350;2022-12-18T04:33:22;18.67;;;8.93;;
40707;SDS011;26392;42.696;23.350;2022-12-18T04:35:47;21.98;;;9.93;;
40707;SDS011;26392;42.696;23.350;2022-12-18T04:38:13;17.05;;;9.43;;
40707;SDS011;26392;42.696;23.350;2022-12-18T04:40:38;22.80;;;9.18;;
40707;SDS011;26392;42.696;23.350;2022-12-18T04:43:04;18.30;;;9.57;;
40707;SDS011;26392;42.696;23.350;2022-12-18T04:45:30;22.00;;;9.35;;
40707;SDS011;26392;42.696;23.350;2022-12-18T04:48:00;21.92;;;10.23;;
40707;SDS011;26392;42.696;23.350;2022-12-18T04:50:26;20.70;;;9.30;;
40707;SDS011;26392;42.696;23.350;2022-12-18T04:52:52;23.05;;;10.50;;
40707;SDS011;26392;42.696;23.350;2022-12-18T04:55:18;19.90;;;9.32;;
40707;SDS011;26392;42.696;23.350;2022-12-18T04:57:44;21.63;;;10.10;;
40707;SDS011;26392;42.696;23.350;2022-12-18T05:00:09;21.40;;;10.60;;
40707;SDS011;26392;42.696;23.350;2022-12-18T05:02:35;22.23;;;10.80;;
40707;SDS011;26392;42.696;23.350;2022-12-18T05:05:01;24.55;;;10.85;;
40707;SDS011;26392;42.696;23.350;2022-12-18T05:07:26;22.83;;;10.80;;
40707;SDS011;26392;42.696;23.350;2022-12-18T05:09:51;24.90;;;10.23;;
40707;SDS011;26392;42.696;23.350;2022-12-18T05:12:17;25.90;;;10.13;;
40707;SDS011;26392;42.696;23.350;2022-12-18T05:14:42;23.83;;;9.77;;
40707;SDS011;26392;42.696;23.350;2022-12-18T05:17:07;25.80;;;11.20;;
40707;SDS011;26392;42.696;23.350;2022-12-18T05:19:33;19.95;;;9.90;;
40707;SDS011;26392;42.696;23.350;2022-12-18T05:21:58;25.25;;;10.55;;
40707;SDS011;26392;42.696;23.350;2022-12-18T05:24:24;28.50;;;12.38;;
40707;SDS011;26392;42.696;23.350;2022-12-18T05:26:49;22.08;;;10.10;;
40707;SDS011;26392;42.696;23.350;2022-12-18T05:29:15;23.95;;;11.07;;
40707;SDS011;26392;42.696;23.350;2022-12-18T05:31:40;25.67;;;11.27;;
40707;SDS011;26392;42.696;23.350;2022-12-18T05:34:06;28.10;;;10.70;;
40707;SDS011;26392;42.696;23.350;2022-12-18T05:36:31;23.50;;;10.85;;
40707;SDS011;26392;42.696;23.350;2022-12-18T05:38:57;25.10;;;10.95;;
40707;SDS011;26392;42.696;23.350;2022-12-18T05:41:22;25.80;;;11.00;;
40707;SDS011;26392;42.696;23.350;2022-12-18T05:43:48;22.88;;;10.65;;
40707;SDS011;26392;42.696;23.350;2022-12-18T05:46:14;28.23;;;11.50;;
40707;SDS011;26392;42.696;23.350;2022-12-18T05:48:41;20.52;;;10.23;;
40707;SDS011;26392;42.696;23.350;2022-12-18T05:51:08;23.13;;;11.15;;
40707;SDS011;26392;42.696;23.350;2022-12-18T05:53:36;27.25;;;11.75;;
40707;SDS011;26392;42.696;23.350;2022-12-18T05:56:21;30.08;;;12.25;;
40707;SDS011;26392;42.696;23.350;2022-12-18T05:58:47;27.48;;;12.85;;
40707;SDS011;26392;42.696;23.350;2022-12-18T06:01:17;27.70;;;11.65;;
40707;SDS011;26392;42.696;23.350;2022-12-18T06:03:51;27.38;;;12.02;;
40707;SDS011;26392;42.696;23.350;2022-12-18T06:06:27;26.58;;;11.73;;
40707;SDS011;26392;42.696;23.350;2022-12-18T06:08:53;29.05;;;13.05;;
40707;SDS011;26392;42.696;23.350;2022-12-18T06:11:21;29.55;;;12.52;;
40707;SDS011;26392;42.696;23.350;2022-12-18T06:13:51;28.73;;;11.05;;
40707;SDS011;26392;42.696;23.350;2022-12-18T06:16:18;28.35;;;12.20;;
40707;SDS011;26392;42.696;23.350;2022-12-18T06:18:43;27.20;;;10.90;;
40707;SDS011;26392;42.696;23.350;2022-12-18T06:21:09;28.08;;;12.63;;
40707;SDS011;26392;42.696;23.350;2022-12-18T06:23:34;24.65;;;11.07;;
40707;SDS011;26392;42.696;23.350;2022-12-18T06:26:05;25.65;;;11.10;;
40707;SDS011;26392;42.696;23.350;2022-12-18T06:28:31;27.70;;;12.18;;
40707;SDS011;26392;42.696;23.350;2022-12-18T06:30:57;28.63;;;12.02;;
40707;SDS011;26392;42.696;23.350;2022-12-18T06:33:25;26.23;;;12.02;;
40707;SDS011;26392;42.696;23.350;2022-12-18T06:35:53;27.88;;;11.98;;
40707;SDS011;26392;42.696;23.350;2022-12-18T06:38:18;27.70;;;11.50;;
40707;SDS011;26392;42.696;23.350;2022-12-18T06:40:44;26.48;;;12.27;;
40707;SDS011;26392;42.696;23.350;2022-12-18T06:43:09;26.13;;;11.48;;
40707;SDS011;26392;42.696;23.350;2022-12-18T06:45:34;27.50;;;11.40;;
40707;SDS011;26392;42.696;23.350;2022-12-18T06:48:00;27.50;;;12.18;;
40707;SDS011;26392;42.696;23.350;2022-12-18T06:50:25;26.35;;;11.75;;
40707;SDS011;26392;42.696;23.350;2022-12-18T06:52:51;26.67;;;11.82;;
40707;SDS011;26392;42.696;23.350;2022-12-18T06:55:16;27.13;;;10.75;;
40707;SDS011;26392;42.696;23.350;2022-12-18T06:57:42;23.92;;;11.20;;
40707;SDS011;26392;42.696;23.350;2022-12-18T07:00:07;23.10;;;10.88;;
40707;SDS011;26392;42.696;23.350;2022-12-18T07:02:33;22.35;;;10.50;;
40707;SDS011;26392;42.696;23.350;2022-12-18T07:04:58;28.75;;;11.90;;
40707;SDS011;26392;42.696;23.350;2022-12-18T07:07:24;23.75;;;10.10;;
40707;SDS011;26392;42.696;23.350;2022-12-18T07:09:49;22.77;;;10.43;;
40707;SDS011;26392;42.696;23.350;2022-12-18T07:12:15;24.48;;;10.38;;
40707;SDS011;26392;42.696;23.350;2022-12-18T07:14:41;25.80;;;11.20;;
40707;SDS011;26392;42.696;23.350;2022-12-18T07:17:06;26.25;;;11.05;;
40707;SDS011;26392;42.696;23.350;2022-12-18T07:19:32;27.75;;;11.82;;
40707;SDS011;26392;42.696;23.350;2022-12-18T07:21:58;32.40;;;11.68;;
40707;SDS011;26392;42.696;23.350;2022-12-18T07:24:23;27.67;;;11.10;;
40707;SDS011;26392;42.696;23.350;2022-12-18T07:26:49;26.02;;;10.98;;
40707;SDS011;26392;42.696;23.350;2022-12-18T07:29:14;26.42;;;11.73;;
40707;SDS011;26392;42.696;23.350;2022-12-18T07:31:39;30.25;;;12.30;;
40707;SDS011;26392;42.696;23.350;2022-12-18T07:34:05;28.15;;;11.68;;
40707;SDS011;26392;42.696;23.350;2022-12-18T07:36:30;31.13;;;12.77;;
40707;SDS011;26392;42.696;23.350;2022-12-18T07:38:55;30.17;;;13.07;;
40707;SDS011;26392;42.696;23.350;2022-12-18T07:41:21;31.52;;;12.73;;
40707;SDS011;26392;42.696;23.350;2022-12-18T07:43:47;28.38;;;12.63;;
40707;SDS011;26392;42.696;23.350;2022-12-18T07:46:13;28.92;;;13.80;;
40707;SDS011;26392;42.696;23.350;2022-12-18T07:48:40;28.60;;;13.20;;
40707;SDS011;26392;42.696;23.350;2022-12-18T07:51:08;35.50;;;13.82;;
40707;SDS011;26392;42.696;23.350;2022-12-18T07:53:38;39.70;;;13.55;;
40707;SDS011;26392;42.696;23.350;2022-12-18T07:56:08;40.17;;;13.30;;
40707;SDS011;26392;42.696;23.350;2022-12-18T07:58:35;34.08;;;13.80;;
40707;SDS011;26392;42.696;23.350;2022-12-18T08:01:04;27.80;;;13.02;;
40707;SDS011;26392;42.696;23.350;2022-12-18T08:03:31;32.85;;;13.40;;
40707;SDS011;26392;42.696;23.350;2022-12-18T08:06:03;35.45;;;14.18;;
40707;SDS011;26392;42.696;23.350;2022-12-18T08:10:57;32.60;;;12.73;;
40707;SDS011;26392;42.696;23.350;2022-12-18T08:13:22;30.27;;;13.90;;
40707;SDS011;26392;42.696;23.350;2022-12-18T08:15:55;32.17;;;14.80;;
40707;SDS011;26392;42.696;23.350;2022-12-18T08:18:22;32.13;;;13.93;;
40707;SDS011;26392;42.696;23.350;2022-12-18T08:20:48;33.83;;;13.98;;
40707;SDS011;26392;42.696;23.350;2022-12-18T08:23:13;36.42;;;13.95;;
40707;SDS011;26392;42.696;23.350;2022-12-18T08:25:38;27.58;;;13.45;;
40707;SDS011;26392;42.696;23.350;2022-12-18T08:28:04;30.08;;;13.45;;
40707;SDS011;26392;42.696;23.350;2022-12-18T08:30:29;32.28;;;13.02;;
40707;SDS011;26392;42.696;23.350;2022-12-18T08:32:54;29.45;;;13.15;;
40707;SDS011;26392;42.696;23.350;2022-12-18T08:35:20;27.50;;;12.63;;
40707;SDS011;26392;42.696;23.350;2022-12-18T08:37:45;30.27;;;12.93;;
40707;SDS011;26392;42.696;23.350;2022-12-18T08:40:11;31.25;;;13.48;;
40707;SDS011;26392;42.696;23.350;2022-12-18T08:42:37;31.05;;;13.35;;
40707;SDS011;26392;42.696;23.350;2022-12-18T08:45:21;32.90;;;13.70;;
40707;SDS011;26392;42.696;23.350;2022-12-18T08:47:47;33.33;;;13.23;;
40707;SDS011;26392;42.696;23.350;2022-12-18T08:50:12;27.42;;;12.98;;
40707;SDS011;26392;42.696;23.350;2022-12-18T08:52:38;31.23;;;12.77;;
40707;SDS011;26392;42.696;23.350;2022-12-18T08:55:03;28.40;;;13.18;;
40707;SDS011;26392;42.696;23.350;2022-12-18T08:57:29;30.55;;;12.60;;
40707;SDS011;26392;42.696;23.350;2022-12-18T08:59:54;36.25;;;13.68;;
40707;SDS011;26392;42.696;23.350;2022-12-18T09:02:20;25.73;;;12.02;;
40707;SDS011;26392;42.696;23.350;2022-12-18T09:04:48;27.77;;;11.93;;
40707;SDS011;26392;42.696;23.350;2022-12-18T09:07:14;33.35;;;12.90;;
40707;SDS011;26392;42.696;23.350;2022-12-18T09:09:39;30.73;;;11.70;;
40707;SDS011;26392;42.696;23.350;2022-12-18T09:12:04;24.08;;;11.40;;
40707;SDS011;26392;42.696;23.350;2022-12-18T09:14:30;29.70;;;12.27;;
40707;SDS011;26392;42.696;23.350;2022-12-18T09:16:55;27.48;;;10.35;;
40707;SDS011;26392;42.696;23.350;2022-12-18T09:19:21;27.95;;;11.50;;
40707;SDS011;26392;42.696;23.350;2022-12-18T09:21:46;34.03;;;12.93;;
40707;SDS011;26392;42.696;23.350;2022-12-18T09:24:12;25.80;;;11.15;;
40707;SDS011;26392;42.696;23.350;2022-12-18T09:26:38;26.17;;;11.52;;
40707;SDS011;26392;42.696;23.350;2022-12-18T09:29:04;25.02;;;11.43;;
40707;SDS011;26392;42.696;23.350;2022-12-18T09:31:32;26.52;;;11.10;;
40707;SDS011;26392;42.696;23.350;2022-12-18T09:33:57;28.73;;;11.20;;
40707;SDS011;26392;42.696;23.350;2022-12-18T09:36:23;27.38;;;12.07;;
40707;SDS011;26392;42.696;23.350;2022-12-18T09:38:48;26.15;;;12.07;;
40707;SDS011;26392;42.696;23.350;2022-12-18T09:43:50;26.73;;;11.25;;
40707;SDS011;26392;42.696;23.350;2022-12-18T09:46:22;24.25;;;11.25;;
40707;SDS011;26392;42.696;23.350;2022-12-18T09:48:54;27.48;;;12.07;;
40707;SDS011;26392;42.696;23.350;2022-12-18T09:51:34;29.88;;;11.40;;
40707;SDS011;26392;42.696;23.350;2022-12-18T09:54:06;28.85;;;11.07;;
40707;SDS011;26392;42.696;23.350;2022-12-18T09:56:38;23.17;;;11.15;;
40707;SDS011;26392;42.696;23.350;2022-12-18T09:59:12;25.27;;;10.55;;
40707;SDS011;26392;42.696;23.350;2022-12-18T10:01:43;26.13;;;10.80;;
40707;SDS011;26392;42.696;23.350;2022-12-18T10:04:09;25.52;;;11.00;;
40707;SDS011;26392;42.696;23.350;2022-12-18T10:06:39;20.20;;;9.88;;
40707;SDS011;26392;42.696;23.350;2022-12-18T10:12:12;27.92;;;11.32;;
40707;SDS011;26392;42.696;23.350;2022-12-18T10:14:54;25.63;;;11.88;;
40707;SDS011;26392;42.696;23.350;2022-12-18T10:17:35;29.35;;;11.25;;
40707;SDS011;26392;42.696;23.350;2022-12-18T10:20:13;25.42;;;11.60;;
40707;SDS011;26392;42.696;23.350;2022-12-18T10:25:28;29.08;;;11.88;;
40707;SDS011;26392;42.696;23.350;2022-12-18T10:27:57;26.80;;;11.65;;
40707;SDS011;26392;42.696;23.350;2022-12-18T10:30:31;29.00;;;12.20;;
40707;SDS011;26392;42.696;23.350;2022-12-18T10:33:00;29.58;;;11.55;;
40707;SDS011;26392;42.696;23.350;2022-12-18T10:35:27;26.75;;;11.75;;
40707;SDS011;26392;42.696;23.350;2022-12-18T10:37:59;24.70;;;11.48;;
40707;SDS011;26392;42.696;23.350;2022-12-18T10:40:24;30.42;;;12.25;;
40707;SDS011;26392;42.696;23.350;2022-12-18T10:45:38;29.45;;;12.43;;
40707;SDS011;26392;42.696;23.350;2022-12-18T10:48:04;28.88;;;11.88;;
40707;SDS011;26392;42.696;23.350;2022-12-18T10:50:42;30.45;;;12.02;;
40707;SDS011;26392;42.696;23.350;2022-12-18T10:53:13;31.23;;;12.73;;
40707;SDS011;26392;42.696;23.350;2022-12-18T10:55:44;29.27;;;12.38;;
40707;SDS011;26392;42.696;23.350;2022-12-18T10:58:31;26.95;;;11.88;;
40707;SDS011;26392;42.696;23.350;2022-12-18T11:01:03;28.27;;;12.00;;
40707;SDS011;26392;42.696;23.350;2022-12-18T11:03:43;30.27;;;11.98;;
40707;SDS011;26392;42.696;23.350;2022-12-18T11:06:24;28.25;;;11.82;;
40707;SDS011;26392;42.696;23.350;2022-12-18T11:11:57;25.52;;;11.18;;
40707;SDS011;26392;42.696;23.350;2022-12-18T11:14:27;29.15;;;12.55;;
40707;SDS011;26392;42.696;23.350;2022-12-18T11:16:59;23.42;;;10.60;;
40707;SDS011;26392;42.696;23.350;2022-12-18T11:21:56;29.30;;;11.18;;
40707;SDS011;26392;42.696;23.350;2022-12-18T11:24:36;26.17;;;10.98;;
40707;SDS011;26392;42.696;23.350;2022-12-18T11:27:03;30.45;;;11.32;;
40707;SDS011;26392;42.696;23.350;2022-12-18T11:29:39;29.00;;;12.15;;
40707;SDS011;26392;42.696;23.350;2022-12-18T11:34:39;24.75;;;11.35;;
40707;SDS011;26392;42.696;23.350;2022-12-18T11:37:10;28.52;;;11.57;;
40707;SDS011;26392;42.696;23.350;2022-12-18T11:42:37;27.92;;;11.88;;
40707;SDS011;26392;42.696;23.350;2022-12-18T11:50:05;28.02;;;12.77;;
40707;SDS011;26392;42.696;23.350;2022-12-18T11:52:43;26.15;;;11.15;;
40707;SDS011;26392;42.696;23.350;2022-12-18T11:55:13;22.52;;;11.25;;
40707;SDS011;26392;42.696;23.350;2022-12-18T12:00:12;25.63;;;10.43;;
40707;SDS011;26392;42.696;23.350;2022-12-18T12:05:31;30.70;;;11.15;;
40707;SDS011;26392;42.696;23.350;2022-12-18T12:18:46;28.13;;;12.55;;
40707;SDS011;26392;42.696;23.350;2022-12-18T12:26:57;29.45;;;11.27;;
40707;SDS011;26392;42.696;23.350;2022-12-18T12:29:55;25.88;;;11.75;;
40707;SDS011;26392;42.696;23.350;2022-12-18T12:32:52;28.88;;;11.75;;
40707;SDS011;26392;42.696;23.350;2022-12-18T12:40:33;25.15;;;11.05;;
40707;SDS011;26392;42.696;23.350;2022-12-18T12:43:03;31.70;;;12.45;;
40707;SDS011;26392;42.696;23.350;2022-12-18T12:48:27;28.40;;;12.55;;
40707;SDS011;26392;42.696;23.350;2022-12-18T12:53:52;32.45;;;11.48;;
40707;SDS011;26392;42.696;23.350;2022-12-18T12:56:19;28.60;;;11.98;;
40707;SDS011;26392;42.696;23.350;2022-12-18T12:58:58;25.50;;;11.75;;
40707;SDS011;26392;42.696;23.350;2022-12-18T13:04:33;29.25;;;12.10;;
40707;SDS011;26392;42.696;23.350;2022-12-18T13:07:09;35.15;;;13.07;;
40707;SDS011;26392;42.696;23.350;2022-12-18T13:10:12;26.65;;;11.73;;
40707;SDS011;26392;42.696;23.350;2022-12-18T13:15:21;26.38;;;10.85;;
40707;SDS011;26392;42.696;23.350;2022-12-18T13:18:02;26.60;;;11.40;;
40707;SDS011;26392;42.696;23.350;2022-12-18T13:20:33;30.40;;;11.13;;
40707;SDS011;26392;42.696;23.350;2022-12-18T13:23:01;26.67;;;12.00;;
40707;SDS011;26392;42.696;23.350;2022-12-18T13:26:00;27.70;;;11.50;;
40707;SDS011;26392;42.696;23.350;2022-12-18T13:33:40;28.83;;;12.05;;
40707;SDS011;26392;42.696;23.350;2022-12-18T13:44:33;27.30;;;11.10;;
40707;SDS011;26392;42.696;23.350;2022-12-18T13:47:05;24.90;;;10.80;;
40707;SDS011;26392;42.696;23.350;2022-12-18T13:49:51;28.48;;;11.35;;
40707;SDS011;26392;42.696;23.350;2022-12-18T13:52:21;27.05;;;11.05;;
40707;SDS011;26392;42.696;23.350;2022-12-18T13:54:53;26.48;;;11.27;;
40707;SDS011;26392;42.696;23.350;2022-12-18T13:57:25;28.05;;;12.55;;
40707;SDS011;26392;42.696;23.350;2022-12-18T13:59:53;25.67;;;11.50;;
40707;SDS011;26392;42.696;23.350;2022-12-18T14:02:23;24.83;;;10.90;;
40707;SDS011;26392;42.696;23.350;2022-12-18T14:04:50;29.92;;;12.27;;
40707;SDS011;26392;42.696;23.350;2022-12-18T14:07:18;24.63;;;11.45;;
40707;SDS011;26392;42.696;23.350;2022-12-18T14:09:47;22.60;;;9.77;;
40707;SDS011;26392;42.696;23.350;2022-12-18T14:12:16;25.90;;;10.60;;
40707;SDS011;26392;42.696;23.350;2022-12-18T14:15:06;29.83;;;12.50;;
40707;SDS011;26392;42.696;23.350;2022-12-18T14:17:46;28.55;;;10.57;;
40707;SDS011;26392;42.696;23.350;2022-12-18T14:20:15;27.60;;;11.45;;
40707;SDS011;26392;42.696;23.350;2022-12-18T14:22:45;29.05;;;11.63;;
40707;SDS011;26392;42.696;23.350;2022-12-18T14:27:38;28.10;;;12.13;;
40707;SDS011;26392;42.696;23.350;2022-12-18T14:33:04;25.30;;;11.27;;
40707;SDS011;26392;42.696;23.350;2022-12-18T14:35:38;26.92;;;11.95;;
40707;SDS011;26392;42.696;23.350;2022-12-18T14:38:21;31.10;;;11.70;;
40707;SDS011;26392;42.696;23.350;2022-12-18T14:41:32;29.10;;;12.03;;
40707;SDS011;26392;42.696;23.350;2022-12-18T14:43:40;25.52;;;11.02;;
40707;SDS011;26392;42.696;23.350;2022-12-18T14:48:58;25.25;;;10.55;;
40707;SDS011;26392;42.696;23.350;2022-12-18T14:51:29;28.45;;;11.43;;
40707;SDS011;26392;42.696;23.350;2022-12-18T14:54:06;24.95;;;10.50;;
40707;SDS011;26392;42.696;23.350;2022-12-18T14:56:45;26.23;;;11.50;;
40707;SDS011;26392;42.696;23.350;2022-12-18T14:59:30;26.60;;;10.90;;
40707;SDS011;26392;42.696;23.350;2022-12-18T15:01:58;20.15;;;9.55;;
40707;SDS011;26392;42.696;23.350;2022-12-18T15:04:34;25.08;;;10.43;;
40707;SDS011;26392;42.696;23.350;2022-12-18T15:09:36;26.60;;;10.40;;
40707;SDS011;26392;42.696;23.350;2022-12-18T15:12:04;23.67;;;11.00;;
40707;SDS011;26392;42.696;23.350;2022-12-18T15:14:31;30.27;;;12.40;;
40707;SDS011;26392;42.696;23.350;2022-12-18T15:17:03;27.85;;;10.73;;
40707;SDS011;26392;42.696;23.350;2022-12-18T15:19:39;28.08;;;10.95;;
40707;SDS011;26392;42.696;23.350;2022-12-18T15:24:49;24.13;;;10.25;;
40707;SDS011;26392;42.696;23.350;2022-12-18T15:27:23;23.17;;;10.10;;
40707;SDS011;26392;42.696;23.350;2022-12-18T15:30:11;24.80;;;11.15;;
40707;SDS011;26392;42.696;23.350;2022-12-18T15:32:43;28.85;;;11.85;;
40707;SDS011;26392;42.696;23.350;2022-12-18T15:37:34;23.92;;;11.23;;
40707;SDS011;26392;42.696;23.350;2022-12-18T15:39:59;25.00;;;10.63;;
40707;SDS011;26392;42.696;23.350;2022-12-18T15:42:25;22.05;;;10.52;;
40707;SDS011;26392;42.696;23.350;2022-12-18T15:45:12;28.67;;;11.00;;
40707;SDS011;26392;42.696;23.350;2022-12-18T15:47:38;26.90;;;11.15;;
40707;SDS011;26392;42.696;23.350;2022-12-18T15:50:04;26.80;;;11.30;;
40707;SDS011;26392;42.696;23.350;2022-12-18T15:52:31;22.65;;;10.73;;
40707;SDS011;26392;42.696;23.350;2022-12-18T15:55:05;26.42;;;10.15;;
40707;SDS011;26392;42.696;23.350;2022-12-18T15:57:54;28.73;;;12.00;;
40707;SDS011;26392;42.696;23.350;2022-12-18T16:00:19;28.50;;;11.75;;
40707;SDS011;26392;42.696;23.350;2022-12-18T16:02:44;26.75;;;11.63;;
40707;SDS011;26392;42.696;23.350;2022-12-18T16:05:13;26.73;;;10.77;;
40707;SDS011;26392;42.696;23.350;2022-12-18T16:07:40;30.92;;;13.02;;
40707;SDS011;26392;42.696;23.350;2022-12-18T16:10:05;30.50;;;11.95;;
40707;SDS011;26392;42.696;23.350;2022-12-18T16:12:31;27.90;;;12.02;;
40707;SDS011;26392;42.696;23.350;2022-12-18T16:14:57;27.42;;;11.50;;
40707;SDS011;26392;42.696;23.350;2022-12-18T16:17:22;26.85;;;10.77;;
40707;SDS011;26392;42.696;23.350;2022-12-18T16:19:47;29.30;;;13.00;;
40707;SDS011;26392;42.696;23.350;2022-12-18T16:22:20;32.13;;;12.40;;
40707;SDS011;26392;42.696;23.350;2022-12-18T16:24:48;30.10;;;12.52;;